Time;durP1;ratioP1;P1;durP2;ratioP2;P2;SDS_P1;SDS_P2;PMS_P1;PMS_P2;Temp;Humidity;BMP_temperature;BMP_pressure;BME280_temperature;BME280_humidity;BME280_pressure;Samples;Min_cycle;Max_cycle;Signal;HPM_P1;HPM_P2
2023/08/29 00:01:47;;;;;;;4.03;1.33;;;16.80;99.90;;;;;;4977156;28;20394;-80
2023/08/29 00:04:14;;;;;;;3.35;1.52;;;16.80;99.90;;;;;;4994211;28;20018;-81
2023/08/29 00:06:40;;;;;;;3.60;1.40;;;16.90;99.90;;;;;;4977084;28;20046;-81
2023/08/29 00:09:05;;;;;;;3.28;1.30;;;16.90;99.90;;;;;;4993920;28;20034;-87
2023/08/29 00:11:31;;;;;;;4.40;1.50;;;16.90;99.90;;;;;;4977233;28;20477;-81
2023/08/29 00:13:56;;;;;;;4.60;1.45;;;16.90;99.90;;;;;;4976828;28;20065;-81
2023/08/29 00:16:22;;;;;;;1.52;1.38;;;16.80;99.90;;;;;;4976581;28;20062;-81
2023/08/29 00:18:48;;;;;;;2.55;1.42;;;16.80;99.90;;;;;;4978476;28;20483;-81
2023/08/29 00:21:13;;;;;;;1.60;1.50;;;16.70;99.90;;;;;;4980198;28;20027;-81
2023/08/29 00:23:39;;;;;;;2.70;1.60;;;16.70;99.90;;;;;;4980990;28;20039;-81
2023/08/29 00:26:04;;;;;;;2.45;1.30;;;16.70;99.90;;;;;;4980557;28;20460;-89
2023/08/29 00:28:30;;;;;;;3.72;1.48;;;16.80;99.90;;;;;;4980292;28;20030;-81
2023/08/29 00:30:56;;;;;;;1.65;1.45;;;16.80;99.90;;;;;;4997752;28;20022;-81
2023/08/29 00:33:21;;;;;;;4.05;1.65;;;16.70;99.90;;;;;;4980037;28;20468;-81
2023/08/29 00:35:47;;;;;;;1.73;1.27;;;16.70;99.90;;;;;;4980479;28;20065;-81
2023/08/29 00:38:14;;;;;;;2.55;1.40;;;16.70;99.90;;;;;;4979914;28;20026;-81
2023/08/29 00:40:40;;;;;;;2.53;1.33;;;16.70;99.90;;;;;;4997366;28;20031;-81
2023/08/29 00:43:06;;;;;;;2.75;1.42;;;16.70;99.90;;;;;;4997287;28;20081;-89
2023/08/29 00:45:37;;;;;;;2.05;1.35;;;16.70;99.90;;;;;;4979711;28;20391;-81
2023/08/29 00:48:04;;;;;;;2.63;1.33;;;16.60;99.90;;;;;;4997142;28;20026;-81
2023/08/29 00:50:30;;;;;;;4.07;1.42;;;16.60;99.90;;;;;;4996923;28;20030;-79
2023/08/29 00:53:03;;;;;;;1.38;1.27;;;16.60;99.90;;;;;;4980147;28;20038;-80
2023/08/29 00:55:29;;;;;;;3.13;1.33;;;16.60;99.90;;;;;;4979496;28;20145;-81
2023/08/29 00:57:59;;;;;;;2.08;1.30;;;16.50;99.90;;;;;;4980018;28;20039;-80
2023/08/29 01:00:30;;;;;;;1.73;1.50;;;16.60;99.90;;;;;;4979451;28;20105;-81
2023/08/29 01:02:56;;;;;;;2.25;1.52;;;16.60;99.90;;;;;;4979703;28;20365;-80
2023/08/29 01:05:22;;;;;;;1.45;1.30;;;16.60;99.90;;;;;;4979524;28;20073;-81
2023/08/29 01:07:53;;;;;;;2.05;1.30;;;16.60;99.90;;;;;;4979407;28;20099;-78
2023/08/29 01:10:28;;;;;;;2.05;1.27;;;16.50;99.90;;;;;;4978681;28;20027;-79
2023/08/29 01:13:31;;;;;;;3.45;1.30;;;16.50;99.90;;;;;;4979179;28;20038;-79
2023/08/29 01:16:00;;;;;;;2.08;1.67;;;16.60;99.90;;;;;;4962223;28;20041;-79
2023/08/29 01:18:28;;;;;;;1.55;1.40;;;16.50;99.90;;;;;;4996036;28;20118;-79
2023/08/29 01:21:24;;;;;;;2.03;1.40;;;16.50;99.90;;;;;;4996924;28;20030;-79
2023/08/29 01:23:57;;;;;;;2.00;1.35;;;16.50;99.90;;;;;;4968614;28;20097;-79
2023/08/29 01:26:24;;;;;;;2.75;1.52;;;16.50;99.90;;;;;;4996876;28;20037;-79
2023/08/29 01:28:50;;;;;;;1.67;1.45;;;16.40;99.90;;;;;;4996724;28;20019;-78
2023/08/29 01:31:18;;;;;;;2.55;1.50;;;16.50;99.90;;;;;;4977678;28;20034;-80
2023/08/29 01:33:44;;;;;;;2.90;1.48;;;16.50;99.90;;;;;;4979277;28;20041;-79
2023/08/29 01:36:10;;;;;;;3.63;1.60;;;16.40;99.90;;;;;;4996037;28;20022;-85
2023/08/29 01:38:36;;;;;;;1.75;1.23;;;16.40;99.90;;;;;;4979116;28;20073;-78
2023/08/29 01:41:02;;;;;;;2.88;1.30;;;16.40;99.90;;;;;;4978920;28;20061;-80
2023/08/29 01:43:27;;;;;;;4.28;1.38;;;16.40;99.90;;;;;;4995800;28;20045;-80
2023/08/29 01:45:53;;;;;;;4.53;2.13;;;16.50;99.90;;;;;;4978744;28;20125;-80
2023/08/29 01:48:18;;;;;;;2.30;1.60;;;16.50;99.90;;;;;;4978101;28;20026;-80
2023/08/29 01:50:45;;;;;;;2.30;1.40;;;16.50;99.90;;;;;;4978825;28;20423;-80
2023/08/29 01:53:11;;;;;;;2.92;1.48;;;16.50;99.90;;;;;;4978488;28;20037;-85
2023/08/29 01:55:38;;;;;;;1.60;1.15;;;16.50;99.90;;;;;;4978645;28;20035;-80
2023/08/29 01:58:05;;;;;;;2.40;1.40;;;16.50;99.90;;;;;;4978824;28;20031;-80
2023/08/29 02:00:31;;;;;;;3.83;1.70;;;16.50;99.90;;;;;;4995598;28;20026;-79
2023/08/29 02:02:57;;;;;;;1.95;1.33;;;16.40;99.90;;;;;;4978910;28;20061;-79
2023/08/29 02:05:23;;;;;;;2.28;1.35;;;16.40;99.90;;;;;;4978073;28;20026;-79
2023/08/29 02:07:50;;;;;;;1.98;1.45;;;16.40;99.90;;;;;;4996161;28;20030;-80
2023/08/29 02:10:15;;;;;;;2.38;1.30;;;16.30;99.90;;;;;;4978205;28;20030;-81
2023/08/29 02:12:41;;;;;;;3.67;1.38;;;16.40;99.90;;;;;;4978681;28;20490;-81
2023/08/29 02:15:08;;;;;;;5.65;1.60;;;16.40;99.90;;;;;;4978690;28;20023;-81
2023/08/29 02:17:33;;;;;;;3.22;1.73;;;16.40;99.90;;;;;;4995005;28;20487;-81
2023/08/29 02:19:59;;;;;;;2.40;1.50;;;16.40;99.90;;;;;;4978716;28;20080;-82
2023/08/29 02:22:25;;;;;;;4.30;1.55;;;16.40;99.90;;;;;;4978015;28;20034;-82
2023/08/29 02:24:50;;;;;;;4.32;1.70;;;16.40;99.90;;;;;;4995726;28;20023;-82
2023/08/29 02:27:16;;;;;;;3.97;1.90;;;16.40;99.90;;;;;;4977965;28;20032;-83
2023/08/29 02:29:42;;;;;;;2.38;1.70;;;16.40;99.90;;;;;;4995560;28;20022;-82
2023/08/29 02:32:07;;;;;;;2.60;1.38;;;16.40;99.90;;;;;;4978172;28;20073;-82
2023/08/29 02:34:33;;;;;;;3.33;1.73;;;16.50;99.90;;;;;;4977599;28;20611;-81
2023/08/29 02:36:58;;;;;;;2.55;1.50;;;16.50;99.90;;;;;;4995361;28;20078;-82
2023/08/29 02:39:24;;;;;;;5.13;1.80;;;16.50;99.90;;;;;;4977131;28;20060;-82
2023/08/29 02:41:50;;;;;;;3.28;1.77;;;16.50;99.90;;;;;;4994507;28;20022;-82
2023/08/29 02:44:15;;;;;;;2.42;1.75;;;16.50;99.90;;;;;;4994292;28;20077;-87
2023/08/29 02:46:41;;;;;;;3.42;1.88;;;16.60;99.90;;;;;;4977573;28;20392;-82
2023/08/29 02:49:07;;;;;;;3.25;1.83;;;16.60;99.90;;;;;;4995035;28;20057;-82
2023/08/29 02:51:32;;;;;;;3.20;1.70;;;16.60;99.90;;;;;;4977416;28;20146;-82
2023/08/29 02:53:58;;;;;;;2.15;1.65;;;16.60;99.90;;;;;;4994747;28;20030;-81
2023/08/29 02:56:23;;;;;;;2.35;1.58;;;16.60;99.90;;;;;;4994793;28;20470;-82
2023/08/29 02:58:50;;;;;;;2.13;1.70;;;16.60;99.90;;;;;;4977778;28;20023;-82
2023/08/29 03:01:16;;;;;;;3.35;1.70;;;16.60;99.90;;;;;;4977671;28;20065;-87
2023/08/29 03:03:41;;;;;;;3.28;1.58;;;16.50;99.90;;;;;;4995133;28;20502;-82
2023/08/29 03:06:07;;;;;;;2.47;1.75;;;16.50;99.90;;;;;;4977612;28;20387;-83
2023/08/29 03:08:33;;;;;;;3.22;1.98;;;16.50;99.90;;;;;;4994574;28;20062;-82
2023/08/29 03:11:05;;;;;;;2.42;1.60;;;16.50;99.90;;;;;;4977546;28;20053;-82
2023/08/29 03:13:31;;;;;;;2.78;1.60;;;16.50;99.90;;;;;;4994656;28;20467;-82
2023/08/29 03:15:59;;;;;;;3.53;1.90;;;16.60;99.90;;;;;;4994948;28;20030;-82
2023/08/29 03:18:27;;;;;;;1.77;1.60;;;16.60;99.90;;;;;;4976949;28;20073;-82
2023/08/29 03:20:53;;;;;;;3.00;1.58;;;16.60;99.90;;;;;;4977720;28;20023;-82
2023/08/29 03:23:19;;;;;;;2.10;1.73;;;16.60;99.90;;;;;;4977068;28;20053;-83
2023/08/29 03:25:44;;;;;;;2.90;1.55;;;16.60;99.90;;;;;;4994529;28;20467;-82
2023/08/29 03:28:10;;;;;;;2.65;1.85;;;16.60;99.90;;;;;;4994565;28;20022;-82
2023/08/29 03:30:36;;;;;;;2.42;2.08;;;16.50;99.90;;;;;;4994417;28;20579;-82
2023/08/29 03:33:01;;;;;;;1.90;1.58;;;16.50;99.90;;;;;;4994571;28;20121;-82
2023/08/29 03:35:27;;;;;;;3.47;1.83;;;16.40;99.90;;;;;;4976898;28;20036;-83
2023/08/29 03:37:52;;;;;;;4.43;1.80;;;16.40;99.90;;;;;;4994810;28;20053;-82
2023/08/29 03:40:18;;;;;;;3.13;1.60;;;16.40;99.90;;;;;;4994363;28;20034;-88
2023/08/29 03:42:44;;;;;;;2.97;1.67;;;16.40;99.90;;;;;;5003016;28;20037;-83
2023/08/29 03:45:09;;;;;;;5.32;2.13;;;16.30;99.90;;;;;;4996819;28;20108;-83
2023/08/29 03:47:37;;;;;;;6.57;2.08;;;16.30;99.90;;;;;;4996309;28;20116;-83
2023/08/29 03:50:03;;;;;;;2.80;1.88;;;16.30;99.90;;;;;;4996521;28;20026;-83
2023/08/29 03:52:28;;;;;;;1.90;1.70;;;16.30;99.90;;;;;;5013592;28;20064;-82
2023/08/29 03:54:55;;;;;;;4.68;2.10;;;16.30;99.90;;;;;;5000570;28;20104;-82
2023/08/29 03:57:22;;;;;;;4.15;1.88;;;16.30;99.90;;;;;;5000109;28;20030;-83
2023/08/29 03:59:48;;;;;;;2.50;1.70;;;16.30;99.90;;;;;;5000472;28;20037;-82
2023/08/29 04:02:14;;;;;;;3.35;1.73;;;16.30;99.90;;;;;;5000920;28;20029;-82
2023/08/29 04:04:39;;;;;;;4.63;1.95;;;16.30;99.90;;;;;;5000151;28;20033;-83
2023/08/29 04:07:05;;;;;;;2.92;2.15;;;16.30;99.90;;;;;;5000543;28;20066;-83
2023/08/29 04:09:31;;;;;;;4.60;1.80;;;16.30;99.90;;;;;;5000253;28;20034;-83
2023/08/29 04:11:57;;;;;;;2.42;1.83;;;16.30;99.90;;;;;;5000757;28;20514;-83
2023/08/29 04:14:22;;;;;;;1.73;1.60;;;16.30;99.90;;;;;;5000122;28;20033;-83
2023/08/29 04:16:48;;;;;;;3.78;1.67;;;16.30;99.90;;;;;;5000634;28;20386;-82
2023/08/29 04:19:14;;;;;;;3.78;2.00;;;16.30;99.90;;;;;;5000971;28;20036;-83
2023/08/29 04:21:40;;;;;;;3.85;2.28;;;16.40;99.90;;;;;;5000533;28;20180;-82
2023/08/29 04:24:06;;;;;;;3.78;2.00;;;16.40;99.90;;;;;;5017631;28;20125;-82
2023/08/29 04:26:32;;;;;;;3.95;2.03;;;16.30;99.90;;;;;;5000475;28;20061;-83
2023/08/29 04:28:58;;;;;;;2.95;2.13;;;16.40;99.90;;;;;;5000419;28;20368;-83
2023/08/29 04:31:23;;;;;;;4.13;2.00;;;16.50;99.90;;;;;;5017917;28;20029;-83
2023/08/29 04:33:49;;;;;;;3.10;2.03;;;16.50;99.90;;;;;;5000450;28;20065;-83
2023/08/29 04:36:16;;;;;;;2.85;1.98;;;16.50;99.90;;;;;;5000459;28;20171;-83
2023/08/29 04:38:47;;;;;;;4.35;2.33;;;16.50;99.90;;;;;;5017617;28;20026;-83
2023/08/29 04:41:13;;;;;;;2.88;2.30;;;16.50;99.90;;;;;;5000685;28;20037;-83
2023/08/29 04:43:39;;;;;;;5.63;2.92;;;16.60;99.90;;;;;;5000324;28;20026;-83
2023/08/29 04:46:08;;;;;;;6.00;2.30;;;16.60;99.90;;;;;;5017504;28;20057;-83
2023/08/29 04:48:34;;;;;;;3.00;2.10;;;16.50;99.90;;;;;;5000271;28;20036;-82
2023/08/29 04:51:00;;;;;;;7.85;2.40;;;16.40;99.90;;;;;;5000389;28;20026;-82
2023/08/29 04:53:26;;;;;;;5.32;2.35;;;16.40;99.90;;;;;;5016948;28;20376;-81
2023/08/29 04:56:03;;;;;;;3.03;2.10;;;16.30;99.90;;;;;;4999939;28;20098;-81
2023/08/29 04:58:29;;;;;;;2.47;1.88;;;16.30;99.90;;;;;;4999435;28;20116;-81
2023/08/29 05:00:56;;;;;;;5.97;2.10;;;16.20;99.90;;;;;;5017106;28;20050;-81
2023/08/29 05:03:21;;;;;;;3.42;2.15;;;16.20;99.90;;;;;;4999415;28;20148;-87
2023/08/29 05:05:48;;;;;;;3.25;2.00;;;16.30;99.90;;;;;;4999345;28;20518;-82
2023/08/29 05:08:13;;;;;;;3.78;2.05;;;16.20;99.90;;;;;;4998839;28;20026;-81
2023/08/29 05:10:40;;;;;;;5.13;2.42;;;16.20;99.90;;;;;;4998959;28;20076;-81
2023/08/29 05:13:06;;;;;;;3.33;2.10;;;16.30;99.90;;;;;;5016470;28;20038;-81
2023/08/29 05:15:32;;;;;;;4.03;2.42;;;16.30;99.90;;;;;;5016342;28;20479;-82
2023/08/29 05:17:58;;;;;;;3.00;2.22;;;16.30;99.90;;;;;;5016348;28;20065;-81
2023/08/29 05:20:24;;;;;;;4.30;2.28;;;16.30;99.90;;;;;;5015731;28;20031;-90
2023/08/29 05:22:49;;;;;;;3.90;2.42;;;16.30;99.90;;;;;;4998708;28;20463;-81
2023/08/29 05:25:15;;;;;;;3.55;2.58;;;16.30;99.90;;;;;;4998744;28;20164;-81
2023/08/29 05:27:40;;;;;;;5.97;2.40;;;16.30;99.90;;;;;;5015393;28;20032;-81
2023/08/29 05:30:07;;;;;;;4.75;2.00;;;16.30;99.90;;;;;;5016352;28;20026;-81
2023/08/29 05:32:33;;;;;;;2.97;2.35;;;16.30;99.90;;;;;;5015671;28;20518;-81
2023/08/29 05:34:59;;;;;;;6.50;2.38;;;16.30;99.90;;;;;;4999079;28;20113;-81
2023/08/29 05:37:24;;;;;;;4.20;2.00;;;16.20;99.90;;;;;;4997993;28;20442;-89
2023/08/29 05:39:51;;;;;;;2.70;2.10;;;16.30;99.90;;;;;;4998560;28;20084;-81
2023/08/29 05:42:17;;;;;;;5.85;2.30;;;16.30;99.90;;;;;;5015713;28;20034;-81
2023/08/29 05:44:42;;;;;;;3.97;2.25;;;16.30;99.90;;;;;;4998109;28;20087;-81
2023/08/29 05:47:08;;;;;;;6.65;2.63;;;16.20;99.90;;;;;;5015853;28;20076;-81
2023/08/29 05:49:34;;;;;;;4.05;2.55;;;16.30;99.90;;;;;;4998161;28;20026;-81
2023/08/29 05:51:59;;;;;;;3.85;2.60;;;16.20;99.90;;;;;;4998402;28;20037;-81
2023/08/29 05:54:25;;;;;;;7.93;2.55;;;16.20;99.90;;;;;;4998160;28;20062;-84
2023/08/29 05:56:51;;;;;;;3.70;2.50;;;16.20;99.90;;;;;;4998618;28;20026;-81
2023/08/29 05:59:16;;;;;;;6.43;2.97;;;16.20;99.90;;;;;;4998739;28;20022;-81
2023/08/29 06:01:42;;;;;;;5.50;2.47;;;16.20;99.90;;;;;;5015425;28;20171;-80
2023/08/29 06:04:08;;;;;;;7.10;2.90;;;16.20;99.90;;;;;;5015757;28;20048;-79
2023/08/29 06:06:33;;;;;;;6.43;2.90;;;16.20;99.90;;;;;;5015087;28;20040;-81
2023/08/29 06:08:59;;;;;;;9.25;2.92;;;16.20;99.90;;;;;;4998392;28;20422;-80
2023/08/29 06:11:26;;;;;;;6.72;3.05;;;16.20;99.90;;;;;;5015172;28;20022;-87
2023/08/29 06:13:52;;;;;;;6.50;3.25;;;16.20;99.90;;;;;;5015484;28;20030;-81
2023/08/29 06:16:17;;;;;;;7.82;3.05;;;16.30;99.90;;;;;;4997411;28;20474;-81
2023/08/29 06:18:43;;;;;;;6.05;3.22;;;16.30;99.90;;;;;;4997763;28;20632;-81
2023/08/29 06:21:09;;;;;;;5.72;2.85;;;16.30;99.90;;;;;;4998111;28;20459;-82
2023/08/29 06:23:34;;;;;;;4.47;3.10;;;16.30;99.90;;;;;;5014921;28;20084;-82
2023/08/29 06:26:00;;;;;;;7.47;3.40;;;16.30;99.90;;;;;;4998024;28;20037;-81
2023/08/29 06:28:26;;;;;;;5.60;3.38;;;16.30;99.90;;;;;;4997529;28;20022;-91
2023/08/29 06:30:52;;;;;;;4.38;2.92;;;16.30;99.90;;;;;;4997182;28;20028;-80
2023/08/29 06:33:17;;;;;;;4.00;3.00;;;16.30;99.90;;;;;;5014696;28;20116;-81
2023/08/29 06:35:43;;;;;;;7.28;3.00;;;16.30;99.90;;;;;;5014234;28;20030;-81
2023/08/29 06:38:09;;;;;;;3.42;2.88;;;16.30;99.90;;;;;;4997233;28;20048;-80
2023/08/29 06:40:35;;;;;;;4.15;3.25;;;16.30;99.90;;;;;;4997126;28;20030;-80
2023/08/29 06:43:01;;;;;;;5.13;3.03;;;16.30;99.90;;;;;;4997350;28;20072;-81
2023/08/29 06:45:26;;;;;;;5.05;2.90;;;16.30;99.90;;;;;;4997056;28;20050;-82
2023/08/29 06:47:52;;;;;;;6.22;3.65;;;16.30;99.90;;;;;;4997684;28;20586;-81
2023/08/29 06:50:17;;;;;;;3.40;3.08;;;16.40;99.90;;;;;;5014780;28;20029;-81
2023/08/29 06:52:43;;;;;;;3.97;2.90;;;16.30;99.90;;;;;;4997394;28;20542;-82
2023/08/29 06:55:09;;;;;;;4.13;3.20;;;16.30;99.90;;;;;;5014786;28;20033;-80
2023/08/29 06:57:35;;;;;;;5.07;3.30;;;16.30;99.90;;;;;;4996892;28;20033;-82
2023/08/29 07:00:01;;;;;;;5.43;3.17;;;16.40;99.90;;;;;;5005330;28;20029;-79
2023/08/29 07:02:26;;;;;;;4.78;3.30;;;16.40;99.90;;;;;;5020841;28;20188;-87
2023/08/29 07:04:52;;;;;;;5.85;3.70;;;16.30;99.90;;;;;;5027708;28;20032;-81
2023/08/29 07:07:18;;;;;;;6.28;3.72;;;16.20;99.90;;;;;;5005381;28;20034;-79
2023/08/29 07:09:43;;;;;;;4.53;3.47;;;16.30;99.90;;;;;;5009740;28;20026;-79
2023/08/29 07:12:09;;;;;;;5.28;3.47;;;16.30;99.90;;;;;;5005615;28;20073;-78
2023/08/29 07:14:35;;;;;;;3.70;3.25;;;16.30;99.90;;;;;;5026993;28;20026;-83
2023/08/29 07:17:01;;;;;;;4.43;3.15;;;16.40;99.90;;;;;;5005000;28;20030;-82
2023/08/29 07:19:28;;;;;;;6.00;3.40;;;16.40;99.90;;;;;;5005199;28;20037;-81
2023/08/29 07:21:54;;;;;;;7.03;3.70;;;16.50;99.90;;;;;;5022936;28;20033;-83
2023/08/29 07:24:19;;;;;;;4.53;3.17;;;16.50;99.90;;;;;;5004354;28;20030;-86
2023/08/29 07:26:45;;;;;;;6.72;3.50;;;16.50;99.90;;;;;;5006626;28;20026;-83
2023/08/29 07:29:11;;;;;;;6.30;3.33;;;16.50;99.90;;;;;;5008603;28;20036;-83
2023/08/29 07:31:36;;;;;;;4.50;3.10;;;16.50;99.90;;;;;;5018934;28;20105;-85
2023/08/29 07:34:02;;;;;;;7.10;3.67;;;16.50;99.90;;;;;;5003077;28;20026;-85
2023/08/29 07:36:27;;;;;;;5.03;3.40;;;16.50;99.90;;;;;;5005993;28;20524;-83
2023/08/29 07:38:53;;;;;;;5.97;3.60;;;16.60;99.90;;;;;;5004083;28;20030;-82
2023/08/29 07:41:18;;;;;;;5.32;3.33;;;16.60;99.90;;;;;;5005978;28;20032;-84
2023/08/29 07:43:44;;;;;;;4.35;2.90;;;16.70;99.90;;;;;;5004371;28;20034;-90
2023/08/29 07:46:10;;;;;;;5.10;3.63;;;16.90;99.90;;;;;;5004353;28;20071;-85
2023/08/29 07:48:35;;;;;;;5.10;2.97;;;16.90;99.90;;;;;;5022264;28;20028;-87
2023/08/29 07:51:01;;;;;;;4.28;3.10;;;17.00;99.90;;;;;;5006005;28;20021;-86
2023/08/29 07:53:27;;;;;;;6.85;3.00;;;17.10;99.90;;;;;;5005451;28;20033;-85
2023/08/29 07:55:52;;;;;;;3.90;2.90;;;17.20;99.90;;;;;;5006120;28;20026;-83
2023/08/29 07:58:18;;;;;;;4.65;3.05;;;17.20;99.90;;;;;;5001020;28;20454;-84
2023/08/29 08:00:44;;;;;;;4.07;2.88;;;17.20;99.90;;;;;;5014162;28;20032;-85
2023/08/29 08:03:10;;;;;;;3.92;3.00;;;17.30;99.90;;;;;;4996572;28;20034;-86
2023/08/29 08:05:35;;;;;;;4.90;3.10;;;17.30;99.90;;;;;;4995894;28;20026;-85
2023/08/29 08:08:01;;;;;;;4.38;2.72;;;17.30;99.90;;;;;;5013952;28;20448;-84
2023/08/29 08:10:27;;;;;;;4.65;3.05;;;17.30;99.90;;;;;;4996693;28;20026;-85
2023/08/29 08:12:52;;;;;;;3.50;2.70;;;17.30;99.90;;;;;;5013407;28;20124;-86
2023/08/29 08:15:19;;;;;;;5.70;3.17;;;17.30;99.90;;;;;;5014074;28;20162;-85
2023/08/29 08:17:45;;;;;;;3.55;2.65;;;17.30;99.90;;;;;;5013123;28;20090;-86
2023/08/29 08:20:12;;;;;;;7.35;2.70;;;17.30;99.90;;;;;;4996552;28;20030;-85
2023/08/29 08:22:39;;;;;;;4.30;2.63;;;17.40;99.90;;;;;;4996083;28;20026;-85
2023/08/29 08:25:06;;;;;;;4.40;2.92;;;17.30;99.90;;;;;;4996683;28;20026;-85
2023/08/29 08:27:32;;;;;;;6.18;2.88;;;17.30;99.90;;;;;;4996106;28;20026;-87
2023/08/29 08:29:57;;;;;;;6.78;3.00;;;17.40;99.90;;;;;;4996450;28;20036;-87
2023/08/29 08:32:23;;;;;;;5.80;2.92;;;17.40;99.90;;;;;;4996242;28;20034;-85
2023/08/29 08:34:49;;;;;;;4.28;2.83;;;17.40;99.90;;;;;;5013630;28;20061;-83
2023/08/29 08:37:15;;;;;;;7.32;3.20;;;17.40;99.90;;;;;;4996479;28;20080;-84
2023/08/29 08:39:40;;;;;;;4.78;2.58;;;17.40;99.90;;;;;;4997742;28;20034;-82
2023/08/29 08:42:06;;;;;;;6.07;3.17;;;17.40;99.90;;;;;;5000230;28;20060;-85
2023/08/29 08:44:32;;;;;;;4.97;2.60;;;17.40;99.90;;;;;;4998889;28;20045;-91
2023/08/29 08:46:59;;;;;;;4.32;2.85;;;17.40;99.90;;;;;;4997875;28;20471;-86
2023/08/29 08:49:26;;;;;;;3.47;2.92;;;17.40;99.90;;;;;;4980752;28;20509;-86
2023/08/29 08:51:52;;;;;;;6.43;2.85;;;17.50;99.90;;;;;;4979768;28;20038;-86
2023/08/29 08:54:18;;;;;;;4.43;2.65;;;17.50;99.90;;;;;;4980360;28;20038;-86
2023/08/29 08:56:44;;;;;;;2.92;2.63;;;17.50;99.90;;;;;;4997062;28;20392;-88
2023/08/29 08:59:10;;;;;;;3.25;2.35;;;17.60;99.90;;;;;;4980327;28;20027;-85
2023/08/29 09:01:37;;;;;;;3.05;2.40;;;17.60;99.90;;;;;;4980212;28;20022;-83
2023/08/29 09:04:03;;;;;;;4.50;2.65;;;17.60;99.90;;;;;;4980069;28;20077;-84
2023/08/29 09:06:29;;;;;;;6.10;2.88;;;17.60;99.90;;;;;;4979926;28;20061;-82
2023/08/29 09:09:14;;;;;;;3.35;2.53;;;17.60;99.90;;;;;;4997165;28;20085;-83
2023/08/29 09:11:42;;;;;;;3.70;2.42;;;17.70;99.90;;;;;;4979984;28;20117;-85
2023/08/29 09:14:07;;;;;;;3.95;2.45;;;17.70;99.90;;;;;;4979898;28;20030;-83
2023/08/29 09:16:35;;;;;;;4.57;2.70;;;17.80;99.90;;;;;;4979993;28;20026;-84
2023/08/29 09:19:01;;;;;;;4.38;2.92;;;17.80;99.90;;;;;;4998108;28;20523;-83
2023/08/29 09:21:27;;;;;;;4.28;2.83;;;17.90;99.90;;;;;;4979924;28;20058;-85
2023/08/29 09:23:52;;;;;;;5.90;3.00;;;17.90;99.90;;;;;;4979481;28;20040;-81
2023/08/29 09:26:18;;;;;;;4.53;2.80;;;17.90;99.90;;;;;;4997034;28;20026;-84
2023/08/29 09:28:44;;;;;;;4.20;2.70;;;18.00;99.90;;;;;;5006872;28;20450;-85
2023/08/29 09:31:10;;;;;;;4.28;2.67;;;18.00;99.90;;;;;;5029767;28;20022;-87
2023/08/29 09:33:38;;;;;;;5.80;2.80;;;18.10;99.90;;;;;;5006480;28;20034;-85
2023/08/29 09:36:05;;;;;;;6.10;2.72;;;18.20;99.90;;;;;;5005696;28;20474;-85
2023/08/29 09:38:34;;;;;;;4.55;2.95;;;18.10;99.90;;;;;;5026111;28;20049;-85
2023/08/29 09:41:00;;;;;;;3.40;2.78;;;18.20;99.90;;;;;;5008995;28;20057;-85
2023/08/29 09:43:30;;;;;;;5.07;3.15;;;18.20;99.90;;;;;;5022775;28;20033;-87
2023/08/29 09:45:56;;;;;;;4.45;3.22;;;18.20;99.90;;;;;;5028199;28;20209;-86
2023/08/29 09:48:23;;;;;;;6.72;2.60;;;18.30;99.90;;;;;;5009952;28;20026;-86
2023/08/29 09:50:50;;;;;;;3.30;2.42;;;18.30;99.90;;;;;;5022912;28;20046;-86
2023/08/29 09:53:18;;;;;;;4.00;2.88;;;18.40;99.90;;;;;;5029407;28;20034;-85
2023/08/29 09:55:46;;;;;;;4.30;2.70;;;18.60;99.90;;;;;;4999791;28;20046;-83
2023/08/29 09:58:14;;;;;;;5.43;2.75;;;18.60;99.90;;;;;;4979156;28;20029;-81
2023/08/29 10:00:41;;;;;;;3.35;2.42;;;18.60;99.90;;;;;;4979192;28;20084;-83
2023/08/29 10:03:08;;;;;;;3.38;2.35;;;18.70;99.90;;;;;;4996660;28;20027;-83
2023/08/29 10:05:37;;;;;;;4.80;2.63;;;18.80;99.90;;;;;;4979387;28;20037;-82
2023/08/29 10:08:17;;;;;;;2.85;2.30;;;18.80;99.90;;;;;;4996329;28;20259;-81
2023/08/29 10:10:43;;;;;;;2.42;2.13;;;18.90;99.90;;;;;;4978596;28;20038;-83
2023/08/29 10:13:10;;;;;;;3.45;2.03;;;19.00;99.90;;;;;;4978897;28;20391;-82
2023/08/29 10:15:39;;;;;;;2.72;2.22;;;19.00;99.90;;;;;;4995782;28;20034;-81
2023/08/29 10:18:06;;;;;;;3.63;2.80;;;19.10;99.90;;;;;;4985594;28;20026;-91
2023/08/29 10:20:32;;;;;;;5.60;2.55;;;19.10;99.90;;;;;;4996287;28;20036;-83
2023/08/29 10:23:00;;;;;;;4.35;2.60;;;19.20;99.90;;;;;;4979546;28;20121;-86
2023/08/29 10:25:28;;;;;;;4.35;2.08;;;19.00;99.90;;;;;;4996107;28;20041;-82
2023/08/29 10:27:54;;;;;;;4.38;2.22;;;19.10;99.90;;;;;;4978440;28;20065;-85
2023/08/29 10:30:22;;;;;;;3.05;2.30;;;19.20;99.90;;;;;;4978757;28;20365;-86
2023/08/29 10:32:49;;;;;;;3.25;2.38;;;19.30;99.90;;;;;;4978589;28;20391;-84
2023/08/29 10:35:20;;;;;;;2.90;2.60;;;19.30;99.90;;;;;;4979111;28;20034;-84
2023/08/29 10:37:52;;;;;;;4.25;2.00;;;19.50;99.90;;;;;;4979131;28;20030;-84
2023/08/29 10:40:19;;;;;;;4.35;2.33;;;19.60;99.90;;;;;;4979192;28;20034;-85
2023/08/29 10:42:54;;;;;;;5.55;2.78;;;19.60;99.90;;;;;;4978678;28;20038;-85
2023/08/29 10:45:41;;;;;;;4.10;2.30;;;19.80;99.90;;;;;;4978314;28;20141;-85
2023/08/29 10:48:06;;;;;;;3.88;2.13;;;19.90;99.90;;;;;;4994706;28;20047;-81
2023/08/29 10:50:33;;;;;;;5.97;2.63;;;20.00;99.90;;;;;;4994837;28;20037;-81
2023/08/29 10:52:59;;;;;;;3.17;2.35;;;20.10;99.90;;;;;;4995034;28;20038;-83
2023/08/29 10:55:30;;;;;;;4.07;2.45;;;20.20;99.90;;;;;;4978194;28;20495;-82
2023/08/29 10:57:58;;;;;;;3.17;2.30;;;20.30;99.90;;;;;;4977938;28;20463;-82
2023/08/29 11:00:39;;;;;;;4.00;1.85;;;20.40;99.90;;;;;;4994742;28;20038;-85
2023/08/29 11:03:05;;;;;;;2.95;2.00;;;20.50;99.90;;;;;;4995266;28;20038;-82
2023/08/29 11:05:31;;;;;;;4.72;2.20;;;20.50;99.90;;;;;;4978248;28;20034;-82
2023/08/29 11:08:22;;;;;;;2.53;1.58;;;20.50;99.90;;;;;;4977537;28;20026;-85
2023/08/29 11:11:09;;;;;;;2.37;1.60;;;20.60;99.90;;;;;;4977601;28;20066;-83
2023/08/29 11:13:50;;;;;;;1.65;1.52;;;20.70;99.90;;;;;;4977826;28;20176;-84
2023/08/29 11:16:16;;;;;;;3.50;2.05;;;20.70;99.90;;;;;;4994825;28;20041;-85
2023/08/29 11:18:41;;;;;;;3.40;1.55;;;20.80;99.90;;;;;;4995081;28;20456;-88
2023/08/29 11:21:09;;;;;;;2.28;1.90;;;20.90;99.90;;;;;;4993764;28;20035;-84
2023/08/29 11:23:41;;;;;;;2.55;1.58;;;21.00;99.90;;;;;;4978447;28;20030;-84
2023/08/29 11:26:08;;;;;;;4.53;1.50;;;21.00;99.90;;;;;;4995178;28;20022;-82
2023/08/29 11:28:42;;;;;;;2.22;1.63;;;21.10;99.90;;;;;;4978015;28;20082;-84
2023/08/29 11:31:08;;;;;;;2.17;1.40;;;21.00;99.90;;;;;;4978027;28;20103;-84
2023/08/29 11:33:35;;;;;;;1.98;1.40;;;21.10;99.90;;;;;;4977506;28;20125;-82
2023/08/29 11:36:02;;;;;;;3.05;1.35;;;21.10;99.90;;;;;;4977093;28;20031;-83
2023/08/29 11:38:30;;;;;;;2.15;1.45;;;21.10;99.90;;;;;;4994821;28;20037;-85
2023/08/29 11:40:57;;;;;;;2.20;1.48;;;21.10;99.90;;;;;;4977407;28;20033;-84
2023/08/29 11:43:24;;;;;;;2.80;1.50;;;21.10;99.90;;;;;;4978058;28;20034;-84
2023/08/29 11:45:52;;;;;;;2.85;1.50;;;21.10;99.90;;;;;;4989611;28;20081;-84
2023/08/29 11:48:25;;;;;;;2.72;1.40;;;21.20;99.90;;;;;;5016297;28;20217;-84
2023/08/29 11:50:52;;;;;;;2.80;1.27;;;21.20;99.90;;;;;;5015524;28;20104;-84
2023/08/29 11:53:23;;;;;;;2.67;1.55;;;21.10;99.90;;;;;;4997154;28;20026;-85
2023/08/29 11:55:49;;;;;;;2.70;1.67;;;21.00;99.90;;;;;;4996181;28;20038;-84
2023/08/29 11:58:15;;;;;;;1.77;1.38;;;21.00;99.90;;;;;;5013800;28;20513;-85
2023/08/29 12:00:41;;;;;;;3.60;1.80;;;21.10;99.90;;;;;;4997084;28;20112;-85
2023/08/29 12:03:06;;;;;;;2.05;1.70;;;21.20;99.90;;;;;;4996696;28;20032;-82
2023/08/29 12:05:32;;;;;;;3.63;1.52;;;21.20;99.90;;;;;;5014392;28;20018;-83
2023/08/29 12:07:58;;;;;;;2.72;1.60;;;21.20;99.90;;;;;;5013956;28;20021;-83
2023/08/29 12:10:26;;;;;;;3.33;1.95;;;21.20;99.90;;;;;;4996408;28;20022;-83
2023/08/29 12:12:51;;;;;;;2.53;1.63;;;21.20;99.90;;;;;;4994592;28;20103;-83
2023/08/29 12:15:17;;;;;;;3.20;1.80;;;21.20;99.90;;;;;;5004892;28;20027;-83
2023/08/29 12:17:49;;;;;;;1.60;1.50;;;21.10;99.90;;;;;;4981252;28;20073;-83
2023/08/29 12:20:15;;;;;;;1.63;1.10;;;21.10;99.90;;;;;;4991919;28;20117;-81
2023/08/29 12:22:46;;;;;;;2.10;1.58;;;21.00;99.90;;;;;;5018019;28;20181;-82
2023/08/29 12:25:13;;;;;;;8.20;1.48;;;21.00;99.90;;;;;;5002445;28;20072;-81
2023/08/29 12:27:39;;;;;;;2.03;1.15;;;21.00;99.90;;;;;;5000552;28;20112;-83
2023/08/29 12:30:06;;;;;;;3.55;1.33;;;21.00;99.90;;;;;;4999947;28;20148;-82
2023/08/29 12:32:32;;;;;;;2.88;0.90;;;20.90;99.90;;;;;;5017736;28;20459;-82
2023/08/29 12:34:58;;;;;;;2.00;0.82;;;21.00;99.90;;;;;;5000230;28;20033;-85
2023/08/29 12:37:24;;;;;;;2.20;0.80;;;21.00;99.90;;;;;;5001148;28;20026;-83
2023/08/29 12:39:50;;;;;;;2.80;1.13;;;21.00;99.90;;;;;;5000642;28;20030;-84
2023/08/29 12:42:17;;;;;;;1.70;1.00;;;21.00;99.90;;;;;;5000327;28;20393;-84
2023/08/29 12:44:42;;;;;;;1.77;1.08;;;21.00;99.90;;;;;;4999898;28;20525;-84
2023/08/29 12:47:08;;;;;;;2.25;1.20;;;21.10;99.90;;;;;;4995862;28;20050;-81